sensor_id;sensor_type;location;lat;lon;timestamp;P1;P2;P0
71794;PMS7003;59641;45.188;5.712;2024-03-29T00:02:02;0.00;0.00;0.00
71794;PMS7003;59641;45.188;5.712;2024-03-29T00:04:27;0.00;0.00;0.00
71794;PMS7003;59641;45.188;5.712;2024-03-29T00:06:53;0.00;0.00;0.00
71794;PMS7003;59641;45.188;5.712;2024-03-29T00:09:18;0.00;0.00;0.00
71794;PMS7003;59641;45.188;5.712;2024-03-29T00:11:44;0.00;0.00;0.00
71794;PMS7003;59641;45.188;5.712;2024-03-29T00:14:09;0.00;0.00;0.00
71794;PMS7003;59641;45.188;5.712;2024-03-29T00:16:35;0.00;0.00;0.00
71794;PMS7003;59641;45.188;5.712;2024-03-29T00:19:00;0.00;0.00;0.00
71794;PMS7003;59641;45.188;5.712;2024-03-29T00:21:25;0.00;0.00;0.00
71794;PMS7003;59641;45.188;5.712;2024-03-29T00:23:51;0.00;0.00;0.00
71794;PMS7003;59641;45.188;5.712;2024-03-29T00:26:16;0.00;0.00;0.00
71794;PMS7003;59641;45.188;5.712;2024-03-29T00:28:41;0.00;0.00;0.00
71794;PMS7003;59641;45.188;5.712;2024-03-29T00:31:07;0.00;0.00;0.00
71794;PMS7003;59641;45.188;5.712;2024-03-29T00:33:34;0.00;0.00;0.00
71794;PMS7003;59641;45.188;5.712;2024-03-29T00:36:00;0.00;0.00;0.00
71794;PMS7003;59641;45.188;5.712;2024-03-29T00:38:26;0.00;0.00;0.00
71794;PMS7003;59641;45.188;5.712;2024-03-29T00:40:51;0.00;0.00;0.00
71794;PMS7003;59641;45.188;5.712;2024-03-29T00:43:16;0.00;0.00;0.00
71794;PMS7003;59641;45.188;5.712;2024-03-29T00:45:42;0.00;0.00;0.00
71794;PMS7003;59641;45.188;5.712;2024-03-29T00:48:07;0.00;0.00;0.00
71794;PMS7003;59641;45.188;5.712;2024-03-29T00:50:32;0.00;0.00;0.00
71794;PMS7003;59641;45.188;5.712;2024-03-29T00:52:59;0.00;0.00;0.00
71794;PMS7003;59641;45.188;5.712;2024-03-29T00:55:25;0.00;0.00;0.00
71794;PMS7003;59641;45.188;5.712;2024-03-29T00:57:50;0.00;0.00;0.00
71794;PMS7003;59641;45.188;5.712;2024-03-29T01:00:16;0.00;0.00;0.00
71794;PMS7003;59641;45.188;5.712;2024-03-29T01:02:41;0.00;0.00;0.00
71794;PMS7003;59641;45.188;5.712;2024-03-29T01:05:07;0.00;0.00;0.00
71794;PMS7003;59641;45.188;5.712;2024-03-29T01:07:32;0.00;0.00;0.00
71794;PMS7003;59641;45.188;5.712;2024-03-29T01:09:58;0.00;0.00;0.00
71794;PMS7003;59641;45.188;5.712;2024-03-29T01:12:23;0.00;0.00;0.00
71794;PMS7003;59641;45.188;5.712;2024-03-29T01:14:49;0.00;0.00;0.00
71794;PMS7003;59641;45.188;5.712;2024-03-29T01:17:14;0.00;0.00;0.00
71794;PMS7003;59641;45.188;5.712;2024-03-29T01:19:39;0.00;0.00;0.00
71794;PMS7003;59641;45.188;5.712;2024-03-29T01:22:05;0.00;0.00;0.00
71794;PMS7003;59641;45.188;5.712;2024-03-29T01:24:30;0.00;0.00;0.00
71794;PMS7003;59641;45.188;5.712;2024-03-29T01:26:55;0.00;0.00;0.00
71794;PMS7003;59641;45.188;5.712;2024-03-29T01:29:21;0.00;0.00;0.00
71794;PMS7003;59641;45.188;5.712;2024-03-29T01:31:46;0.00;0.00;0.00
71794;PMS7003;59641;45.188;5.712;2024-03-29T01:34:11;0.00;0.00;0.00
71794;PMS7003;59641;45.188;5.712;2024-03-29T01:36:37;0.00;0.00;0.00
71794;PMS7003;59641;45.188;5.712;2024-03-29T01:39:02;0.00;0.00;0.00
71794;PMS7003;59641;45.188;5.712;2024-03-29T01:41:28;0.00;0.00;0.00
71794;PMS7003;59641;45.188;5.712;2024-03-29T01:43:54;0.00;0.00;0.00
71794;PMS7003;59641;45.188;5.712;2024-03-29T01:46:21;0.00;0.00;0.00
71794;PMS7003;59641;45.188;5.712;2024-03-29T01:48:51;0.00;0.00;0.00
71794;PMS7003;59641;45.188;5.712;2024-03-29T01:51:18;0.00;0.00;0.00
71794;PMS7003;59641;45.188;5.712;2024-03-29T01:53:46;0.00;0.00;0.00
71794;PMS7003;59641;45.188;5.712;2024-03-29T01:56:13;0.00;0.00;0.00
71794;PMS7003;59641;45.188;5.712;2024-03-29T01:58:40;0.00;0.00;0.00
71794;PMS7003;59641;45.188;5.712;2024-03-29T02:01:07;0.00;0.00;0.00
71794;PMS7003;59641;45.188;5.712;2024-03-29T02:03:33;0.00;0.00;0.00
71794;PMS7003;59641;45.188;5.712;2024-03-29T02:05:58;0.00;0.00;0.00
71794;PMS7003;59641;45.188;5.712;2024-03-29T02:08:26;0.00;0.00;0.00
71794;PMS7003;59641;45.188;5.712;2024-03-29T02:10:53;0.00;0.00;0.00
71794;PMS7003;59641;45.188;5.712;2024-03-29T02:13:19;0.00;0.00;0.00
71794;PMS7003;59641;45.188;5.712;2024-03-29T02:15:44;0.00;0.00;0.00
71794;PMS7003;59641;45.188;5.712;2024-03-29T02:18:09;0.00;0.00;0.00
71794;PMS7003;59641;45.188;5.712;2024-03-29T02:20:35;0.00;0.00;0.00
71794;PMS7003;59641;45.188;5.712;2024-03-29T02:23:05;0.00;0.00;0.00
71794;PMS7003;59641;45.188;5.712;2024-03-29T02:25:33;0.00;0.00;0.00
71794;PMS7003;59641;45.188;5.712;2024-03-29T02:27:59;0.00;0.00;0.00
71794;PMS7003;59641;45.188;5.712;2024-03-29T02:30:26;0.00;0.00;0.00
71794;PMS7003;59641;45.188;5.712;2024-03-29T02:32:52;0.00;0.00;0.00
71794;PMS7003;59641;45.188;5.712;2024-03-29T02:35:17;0.00;0.00;0.00
71794;PMS7003;59641;45.188;5.712;2024-03-29T02:37:42;0.00;0.00;0.00
71794;PMS7003;59641;45.188;5.712;2024-03-29T02:40:08;0.00;0.00;0.00
71794;PMS7003;59641;45.188;5.712;2024-03-29T02:42:33;0.00;0.00;0.00
71794;PMS7003;59641;45.188;5.712;2024-03-29T02:45:00;0.00;0.00;0.00
71794;PMS7003;59641;45.188;5.712;2024-03-29T02:47:27;0.00;0.00;0.00
71794;PMS7003;59641;45.188;5.712;2024-03-29T02:49:52;0.00;0.00;0.00
71794;PMS7003;59641;45.188;5.712;2024-03-29T02:52:17;0.00;0.00;0.00
71794;PMS7003;59641;45.188;5.712;2024-03-29T02:54:43;0.00;0.00;0.00
71794;PMS7003;59641;45.188;5.712;2024-03-29T02:57:09;0.00;0.00;0.00
71794;PMS7003;59641;45.188;5.712;2024-03-29T02:59:34;0.00;0.00;0.00
71794;PMS7003;59641;45.188;5.712;2024-03-29T03:01:59;0.00;0.00;0.00
71794;PMS7003;59641;45.188;5.712;2024-03-29T03:04:25;0.00;0.00;0.00
71794;PMS7003;59641;45.188;5.712;2024-03-29T03:06:50;0.00;0.00;0.00
71794;PMS7003;59641;45.188;5.712;2024-03-29T03:09:15;0.00;0.00;0.00
71794;PMS7003;59641;45.188;5.712;2024-03-29T03:11:59;0.00;0.00;0.00
71794;PMS7003;59641;45.188;5.712;2024-03-29T03:14:25;0.00;0.00;0.00
71794;PMS7003;59641;45.188;5.712;2024-03-29T03:16:50;0.00;0.00;0.00
71794;PMS7003;59641;45.188;5.712;2024-03-29T03:19:15;0.00;0.00;0.00
71794;PMS7003;59641;45.188;5.712;2024-03-29T03:21:41;0.00;0.00;0.00
71794;PMS7003;59641;45.188;5.712;2024-03-29T03:24:06;1.00;0.00;0.00
71794;PMS7003;59641;45.188;5.712;2024-03-29T03:26:31;0.00;0.00;0.00
71794;PMS7003;59641;45.188;5.712;2024-03-29T03:28:57;0.00;0.00;0.00
71794;PMS7003;59641;45.188;5.712;2024-03-29T03:31:22;0.00;0.00;0.00
71794;PMS7003;59641;45.188;5.712;2024-03-29T03:33:47;0.00;0.00;0.00
71794;PMS7003;59641;45.188;5.712;2024-03-29T03:36:13;0.00;0.00;0.00
71794;PMS7003;59641;45.188;5.712;2024-03-29T03:38:38;0.00;0.00;0.00
71794;PMS7003;59641;45.188;5.712;2024-03-29T03:41:04;0.00;0.00;0.00
71794;PMS7003;59641;45.188;5.712;2024-03-29T03:43:30;0.00;0.00;0.00
71794;PMS7003;59641;45.188;5.712;2024-03-29T03:45:59;0.00;0.00;0.00
71794;PMS7003;59641;45.188;5.712;2024-03-29T03:48:25;0.00;0.00;0.00
71794;PMS7003;59641;45.188;5.712;2024-03-29T03:50:51;0.00;0.00;0.00
71794;PMS7003;59641;45.188;5.712;2024-03-29T03:53:16;0.00;0.00;0.00
71794;PMS7003;59641;45.188;5.712;2024-03-29T03:55:41;0.00;0.00;0.00
71794;PMS7003;59641;45.188;5.712;2024-03-29T03:58:07;0.00;0.00;0.00
71794;PMS7003;59641;45.188;5.712;2024-03-29T04:00:32;0.00;0.00;0.00
71794;PMS7003;59641;45.188;5.712;2024-03-29T04:02:58;0.00;0.00;0.00
71794;PMS7003;59641;45.188;5.712;2024-03-29T04:05:23;0.00;0.00;0.00
71794;PMS7003;59641;45.188;5.712;2024-03-29T04:07:50;0.00;0.00;0.00
71794;PMS7003;59641;45.188;5.712;2024-03-29T04:10:16;0.75;0.00;0.00
71794;PMS7003;59641;45.188;5.712;2024-03-29T04:12:41;0.00;0.00;0.00
71794;PMS7003;59641;45.188;5.712;2024-03-29T04:15:07;0.00;0.00;0.00
71794;PMS7003;59641;45.188;5.712;2024-03-29T04:17:32;0.00;0.00;0.00
71794;PMS7003;59641;45.188;5.712;2024-03-29T04:19:58;0.00;0.00;0.00
71794;PMS7003;59641;45.188;5.712;2024-03-29T04:22:24;0.00;0.00;0.00
71794;PMS7003;59641;45.188;5.712;2024-03-29T04:24:50;0.00;0.00;0.00
71794;PMS7003;59641;45.188;5.712;2024-03-29T04:27:16;0.00;0.00;0.00
71794;PMS7003;59641;45.188;5.712;2024-03-29T04:29:41;0.00;0.00;0.00
71794;PMS7003;59641;45.188;5.712;2024-03-29T04:32:07;0.00;0.00;0.00
71794;PMS7003;59641;45.188;5.712;2024-03-29T04:34:33;0.00;0.00;0.00
71794;PMS7003;59641;45.188;5.712;2024-03-29T04:36:58;0.00;0.00;0.00
71794;PMS7003;59641;45.188;5.712;2024-03-29T04:39:24;0.00;0.00;0.00
71794;PMS7003;59641;45.188;5.712;2024-03-29T04:41:49;0.00;0.00;0.00
71794;PMS7003;59641;45.188;5.712;2024-03-29T04:44:22;0.00;0.00;0.00
71794;PMS7003;59641;45.188;5.712;2024-03-29T04:46:49;0.00;0.00;0.00
71794;PMS7003;59641;45.188;5.712;2024-03-29T04:49:15;0.00;0.00;0.00
71794;PMS7003;59641;45.188;5.712;2024-03-29T04:51:42;0.00;0.00;0.00
71794;PMS7003;59641;45.188;5.712;2024-03-29T04:54:08;0.00;0.00;0.00
71794;PMS7003;59641;45.188;5.712;2024-03-29T04:56:33;0.00;0.00;0.00
71794;PMS7003;59641;45.188;5.712;2024-03-29T04:59:01;0.00;0.00;0.00
71794;PMS7003;59641;45.188;5.712;2024-03-29T05:01:27;0.00;0.00;0.00
71794;PMS7003;59641;45.188;5.712;2024-03-29T05:03:52;0.00;0.00;0.00
71794;PMS7003;59641;45.188;5.712;2024-03-29T05:06:18;0.00;0.00;0.00
71794;PMS7003;59641;45.188;5.712;2024-03-29T05:08:43;0.00;0.00;0.00
71794;PMS7003;59641;45.188;5.712;2024-03-29T05:11:08;0.00;0.00;0.00
71794;PMS7003;59641;45.188;5.712;2024-03-29T05:13:36;0.00;0.00;0.00
71794;PMS7003;59641;45.188;5.712;2024-03-29T05:16:01;0.00;0.00;0.00
71794;PMS7003;59641;45.188;5.712;2024-03-29T05:18:26;0.00;0.00;0.00
71794;PMS7003;59641;45.188;5.712;2024-03-29T05:20:52;0.00;0.00;0.00
71794;PMS7003;59641;45.188;5.712;2024-03-29T05:23:17;0.00;0.00;0.00
71794;PMS7003;59641;45.188;5.712;2024-03-29T05:25:43;0.00;0.00;0.00
71794;PMS7003;59641;45.188;5.712;2024-03-29T05:28:09;0.00;0.00;0.00
71794;PMS7003;59641;45.188;5.712;2024-03-29T05:30:34;0.00;0.00;0.00
71794;PMS7003;59641;45.188;5.712;2024-03-29T05:33:01;0.00;0.00;0.00
71794;PMS7003;59641;45.188;5.712;2024-03-29T05:35:27;0.00;0.00;0.00
71794;PMS7003;59641;45.188;5.712;2024-03-29T05:37:53;0.00;0.00;0.00
71794;PMS7003;59641;45.188;5.712;2024-03-29T05:40:19;0.00;0.00;0.00
71794;PMS7003;59641;45.188;5.712;2024-03-29T05:42:50;0.00;0.00;0.00
71794;PMS7003;59641;45.188;5.712;2024-03-29T05:45:28;0.00;0.00;0.00
71794;PMS7003;59641;45.188;5.712;2024-03-29T05:47:55;0.00;0.00;0.00
71794;PMS7003;59641;45.188;5.712;2024-03-29T05:50:22;0.00;0.00;0.00
71794;PMS7003;59641;45.188;5.712;2024-03-29T05:52:48;0.00;0.00;0.00
71794;PMS7003;59641;45.188;5.712;2024-03-29T05:55:14;0.00;0.00;0.00
71794;PMS7003;59641;45.188;5.712;2024-03-29T05:57:39;0.00;0.00;0.00
71794;PMS7003;59641;45.188;5.712;2024-03-29T06:00:09;0.00;0.00;0.00
71794;PMS7003;59641;45.188;5.712;2024-03-29T06:02:36;0.00;0.00;0.00
71794;PMS7003;59641;45.188;5.712;2024-03-29T06:05:01;0.00;0.00;0.00
71794;PMS7003;59641;45.188;5.712;2024-03-29T06:07:27;0.00;0.00;0.00
71794;PMS7003;59641;45.188;5.712;2024-03-29T06:09:54;0.40;0.00;0.00
71794;PMS7003;59641;45.188;5.712;2024-03-29T06:12:20;0.00;0.00;0.00
71794;PMS7003;59641;45.188;5.712;2024-03-29T06:14:45;0.00;0.00;0.00
71794;PMS7003;59641;45.188;5.712;2024-03-29T06:17:29;0.00;0.00;0.00
71794;PMS7003;59641;45.188;5.712;2024-03-29T06:19:55;0.50;0.00;0.00
71794;PMS7003;59641;45.188;5.712;2024-03-29T06:22:22;0.00;0.00;0.00
71794;PMS7003;59641;45.188;5.712;2024-03-29T06:24:51;0.00;0.00;0.00
71794;PMS7003;59641;45.188;5.712;2024-03-29T06:27:20;0.00;0.00;0.00
71794;PMS7003;59641;45.188;5.712;2024-03-29T06:29:47;0.00;0.00;0.00
71794;PMS7003;59641;45.188;5.712;2024-03-29T06:32:14;0.00;0.00;0.00
71794;PMS7003;59641;45.188;5.712;2024-03-29T06:34:39;0.00;0.00;0.00
71794;PMS7003;59641;45.188;5.712;2024-03-29T06:37:05;0.00;0.00;0.00
71794;PMS7003;59641;45.188;5.712;2024-03-29T06:39:30;0.00;0.00;0.00
71794;PMS7003;59641;45.188;5.712;2024-03-29T06:41:55;0.00;0.00;0.00
71794;PMS7003;59641;45.188;5.712;2024-03-29T06:44:21;0.00;0.00;0.00
71794;PMS7003;59641;45.188;5.712;2024-03-29T06:46:46;0.00;0.00;0.00
71794;PMS7003;59641;45.188;5.712;2024-03-29T06:49:12;0.00;0.00;0.00
71794;PMS7003;59641;45.188;5.712;2024-03-29T06:51:38;0.00;0.00;0.00
71794;PMS7003;59641;45.188;5.712;2024-03-29T06:54:05;0.00;0.00;0.00
71794;PMS7003;59641;45.188;5.712;2024-03-29T06:56:30;0.00;0.00;0.00
71794;PMS7003;59641;45.188;5.712;2024-03-29T06:58:56;0.00;0.00;0.00
71794;PMS7003;59641;45.188;5.712;2024-03-29T07:01:21;0.00;0.00;0.00
71794;PMS7003;59641;45.188;5.712;2024-03-29T07:03:47;0.00;0.00;0.00
71794;PMS7003;59641;45.188;5.712;2024-03-29T07:06:12;0.00;0.00;0.00
71794;PMS7003;59641;45.188;5.712;2024-03-29T07:08:38;0.00;0.00;0.00
71794;PMS7003;59641;45.188;5.712;2024-03-29T07:11:03;0.00;0.00;0.00
71794;PMS7003;59641;45.188;5.712;2024-03-29T07:13:29;0.00;0.00;0.00
71794;PMS7003;59641;45.188;5.712;2024-03-29T07:16:01;0.00;0.00;0.00
71794;PMS7003;59641;45.188;5.712;2024-03-29T07:18:27;0.00;0.00;0.00
71794;PMS7003;59641;45.188;5.712;2024-03-29T07:20:52;0.00;0.00;0.00
71794;PMS7003;59641;45.188;5.712;2024-03-29T07:23:18;0.00;0.00;0.00
71794;PMS7003;59641;45.188;5.712;2024-03-29T07:25:44;0.00;0.00;0.00
71794;PMS7003;59641;45.188;5.712;2024-03-29T07:28:10;0.00;0.00;0.00
71794;PMS7003;59641;45.188;5.712;2024-03-29T07:30:39;0.00;0.00;0.00
71794;PMS7003;59641;45.188;5.712;2024-03-29T07:33:05;0.50;0.00;0.00
71794;PMS7003;59641;45.188;5.712;2024-03-29T07:35:30;0.00;0.00;0.00
71794;PMS7003;59641;45.188;5.712;2024-03-29T07:37:56;0.00;0.00;0.00
71794;PMS7003;59641;45.188;5.712;2024-03-29T07:40:22;0.00;0.00;0.00
71794;PMS7003;59641;45.188;5.712;2024-03-29T07:42:47;0.00;0.00;0.00
71794;PMS7003;59641;45.188;5.712;2024-03-29T07:45:12;0.00;0.00;0.00
71794;PMS7003;59641;45.188;5.712;2024-03-29T07:47:38;0.00;0.00;0.00
71794;PMS7003;59641;45.188;5.712;2024-03-29T07:50:04;0.00;0.00;0.00
71794;PMS7003;59641;45.188;5.712;2024-03-29T07:52:31;0.00;0.00;0.00
71794;PMS7003;59641;45.188;5.712;2024-03-29T07:54:57;0.00;0.00;0.00
71794;PMS7003;59641;45.188;5.712;2024-03-29T07:57:22;0.00;0.00;0.00
71794;PMS7003;59641;45.188;5.712;2024-03-29T07:59:50;0.00;0.00;0.00
71794;PMS7003;59641;45.188;5.712;2024-03-29T08:02:15;0.00;0.00;0.00
71794;PMS7003;59641;45.188;5.712;2024-03-29T08:04:41;0.00;0.00;0.00
71794;PMS7003;59641;45.188;5.712;2024-03-29T08:07:08;0.00;0.00;0.00
71794;PMS7003;59641;45.188;5.712;2024-03-29T08:09:33;0.00;0.00;0.00
71794;PMS7003;59641;45.188;5.712;2024-03-29T08:11:59;2.00;0.00;0.00
71794;PMS7003;59641;45.188;5.712;2024-03-29T08:14:24;0.00;0.00;0.00
71794;PMS7003;59641;45.188;5.712;2024-03-29T08:16:52;0.00;0.00;0.00
71794;PMS7003;59641;45.188;5.712;2024-03-29T08:19:19;0.00;0.00;0.00
71794;PMS7003;59641;45.188;5.712;2024-03-29T08:21:45;0.00;0.00;0.00
71794;PMS7003;59641;45.188;5.712;2024-03-29T08:24:10;0.00;0.00;0.00
71794;PMS7003;59641;45.188;5.712;2024-03-29T08:26:36;0.00;0.00;0.00
71794;PMS7003;59641;45.188;5.712;2024-03-29T08:29:02;0.00;0.00;0.00
71794;PMS7003;59641;45.188;5.712;2024-03-29T08:31:27;0.00;0.00;0.00
71794;PMS7003;59641;45.188;5.712;2024-03-29T08:33:53;0.00;0.00;0.00
71794;PMS7003;59641;45.188;5.712;2024-03-29T08:36:18;0.00;0.00;0.00
71794;PMS7003;59641;45.188;5.712;2024-03-29T08:38:43;0.00;0.00;0.00
71794;PMS7003;59641;45.188;5.712;2024-03-29T08:41:11;0.00;0.00;0.00
71794;PMS7003;59641;45.188;5.712;2024-03-29T08:43:37;0.00;0.00;0.00
71794;PMS7003;59641;45.188;5.712;2024-03-29T08:46:02;0.00;0.00;0.00
71794;PMS7003;59641;45.188;5.712;2024-03-29T08:48:27;0.00;0.00;0.00
71794;PMS7003;59641;45.188;5.712;2024-03-29T08:50:53;0.00;0.00;0.00
71794;PMS7003;59641;45.188;5.712;2024-03-29T08:53:19;0.00;0.00;0.00
71794;PMS7003;59641;45.188;5.712;2024-03-29T08:55:46;0.00;0.00;0.00
71794;PMS7003;59641;45.188;5.712;2024-03-29T08:58:11;0.00;0.00;0.00
71794;PMS7003;59641;45.188;5.712;2024-03-29T09:00:37;0.00;0.00;0.00
71794;PMS7003;59641;45.188;5.712;2024-03-29T09:03:02;0.00;0.00;0.00
71794;PMS7003;59641;45.188;5.712;2024-03-29T09:05:28;0.00;0.00;0.00
71794;PMS7003;59641;45.188;5.712;2024-03-29T09:07:54;0.00;0.00;0.00
71794;PMS7003;59641;45.188;5.712;2024-03-29T09:10:21;0.00;0.00;0.00
71794;PMS7003;59641;45.188;5.712;2024-03-29T09:12:48;0.00;0.00;0.00
71794;PMS7003;59641;45.188;5.712;2024-03-29T09:15:14;0.00;0.00;0.00
71794;PMS7003;59641;45.188;5.712;2024-03-29T09:17:41;0.00;0.00;0.00
71794;PMS7003;59641;45.188;5.712;2024-03-29T09:20:07;0.00;0.00;0.00
71794;PMS7003;59641;45.188;5.712;2024-03-29T09:22:33;0.00;0.00;0.00
71794;PMS7003;59641;45.188;5.712;2024-03-29T09:24:59;0.20;0.00;0.00
71794;PMS7003;59641;45.188;5.712;2024-03-29T09:27:26;0.00;0.00;0.00
71794;PMS7003;59641;45.188;5.712;2024-03-29T09:29:52;0.00;0.00;0.00
71794;PMS7003;59641;45.188;5.712;2024-03-29T09:32:18;1.00;1.00;0.00
71794;PMS7003;59641;45.188;5.712;2024-03-29T09:34:45;0.00;0.00;0.00
71794;PMS7003;59641;45.188;5.712;2024-03-29T09:37:11;0.00;0.00;0.00
71794;PMS7003;59641;45.188;5.712;2024-03-29T09:39:36;0.50;0.00;0.00
71794;PMS7003;59641;45.188;5.712;2024-03-29T09:42:06;0.00;0.00;0.00
71794;PMS7003;59641;45.188;5.712;2024-03-29T09:44:32;0.00;0.00;0.00
71794;PMS7003;59641;45.188;5.712;2024-03-29T09:47:04;1.00;0.00;0.00
71794;PMS7003;59641;45.188;5.712;2024-03-29T09:49:31;0.00;0.00;0.00
71794;PMS7003;59641;45.188;5.712;2024-03-29T09:51:57;2.00;0.00;0.00
71794;PMS7003;59641;45.188;5.712;2024-03-29T09:54:24;0.00;0.00;0.00
71794;PMS7003;59641;45.188;5.712;2024-03-29T09:56:53;0.20;0.20;0.00
71794;PMS7003;59641;45.188;5.712;2024-03-29T09:59:20;2.80;1.00;0.40
71794;PMS7003;59641;45.188;5.712;2024-03-29T10:01:46;0.00;0.00;0.00
71794;PMS7003;59641;45.188;5.712;2024-03-29T10:04:14;0.00;0.00;0.00
71794;PMS7003;59641;45.188;5.712;2024-03-29T10:06:41;1.80;1.00;0.00
71794;PMS7003;59641;45.188;5.712;2024-03-29T10:09:11;4.60;1.00;0.00
71794;PMS7003;59641;45.188;5.712;2024-03-29T10:11:37;1.20;0.20;0.00
71794;PMS7003;59641;45.188;5.712;2024-03-29T10:14:03;0.40;0.00;0.00
71794;PMS7003;59641;45.188;5.712;2024-03-29T10:16:32;0.00;0.00;0.00
71794;PMS7003;59641;45.188;5.712;2024-03-29T10:18:58;0.00;0.00;0.00
71794;PMS7003;59641;45.188;5.712;2024-03-29T10:21:24;0.50;0.50;0.00
71794;PMS7003;59641;45.188;5.712;2024-03-29T10:23:51;0.00;0.00;0.00
71794;PMS7003;59641;45.188;5.712;2024-03-29T10:26:16;0.00;0.00;0.00
71794;PMS7003;59641;45.188;5.712;2024-03-29T10:28:43;0.75;0.75;0.00
71794;PMS7003;59641;45.188;5.712;2024-03-29T10:31:08;0.00;0.00;0.00
71794;PMS7003;59641;45.188;5.712;2024-03-29T10:33:34;0.75;0.00;0.00
71794;PMS7003;59641;45.188;5.712;2024-03-29T10:36:00;0.50;0.00;0.00
71794;PMS7003;59641;45.188;5.712;2024-03-29T10:38:29;0.60;0.00;0.00
71794;PMS7003;59641;45.188;5.712;2024-03-29T10:40:55;3.25;0.75;0.00
71794;PMS7003;59641;45.188;5.712;2024-03-29T10:43:22;1.40;0.20;0.00
71794;PMS7003;59641;45.188;5.712;2024-03-29T10:45:49;1.40;0.40;0.00
71794;PMS7003;59641;45.188;5.712;2024-03-29T10:48:16;0.20;0.00;0.00
71794;PMS7003;59641;45.188;5.712;2024-03-29T10:50:42;0.00;0.00;0.00
71794;PMS7003;59641;45.188;5.712;2024-03-29T10:53:09;0.00;0.00;0.00
71794;PMS7003;59641;45.188;5.712;2024-03-29T10:55:36;3.20;1.40;0.00
71794;PMS7003;59641;45.188;5.712;2024-03-29T10:58:03;1.00;1.00;0.00
71794;PMS7003;59641;45.188;5.712;2024-03-29T11:00:33;3.00;0.80;0.00
71794;PMS7003;59641;45.188;5.712;2024-03-29T11:03:28;0.00;0.00;0.00
71794;PMS7003;59641;45.188;5.712;2024-03-29T11:05:57;1.00;0.00;0.00
71794;PMS7003;59641;45.188;5.712;2024-03-29T11:08:28;3.40;0.00;0.00
71794;PMS7003;59641;45.188;5.712;2024-03-29T11:10:59;2.60;0.80;0.00
71794;PMS7003;59641;45.188;5.712;2024-03-29T11:13:37;5.20;2.00;0.00
71794;PMS7003;59641;45.188;5.712;2024-03-29T11:16:12;3.00;2.60;0.60
71794;PMS7003;59641;45.188;5.712;2024-03-29T11:18:40;1.00;0.60;0.00
71794;PMS7003;59641;45.188;5.712;2024-03-29T11:21:07;0.80;0.00;0.00
71794;PMS7003;59641;45.188;5.712;2024-03-29T11:23:34;1.80;0.80;0.00
71794;PMS7003;59641;45.188;5.712;2024-03-29T11:26:00;0.75;0.75;0.00
71794;PMS7003;59641;45.188;5.712;2024-03-29T11:28:27;4.75;3.00;1.00
71794;PMS7003;59641;45.188;5.712;2024-03-29T11:30:56;5.00;4.40;1.20
71794;PMS7003;59641;45.188;5.712;2024-03-29T11:35:58;4.40;1.40;0.20
71794;PMS7003;59641;45.188;5.712;2024-03-29T11:38:34;6.20;3.20;0.00
71794;PMS7003;59641;45.188;5.712;2024-03-29T11:41:04;3.80;0.80;0.00
71794;PMS7003;59641;45.188;5.712;2024-03-29T11:43:38;2.40;1.40;0.20
71794;PMS7003;59641;45.188;5.712;2024-03-29T11:46:05;0.00;0.00;0.00
71794;PMS7003;59641;45.188;5.712;2024-03-29T11:48:32;2.40;1.00;0.40
71794;PMS7003;59641;45.188;5.712;2024-03-29T11:50:58;2.00;0.40;0.00
71794;PMS7003;59641;45.188;5.712;2024-03-29T11:53:25;3.00;2.00;0.80
71794;PMS7003;59641;45.188;5.712;2024-03-29T11:55:52;5.20;3.40;0.60
71794;PMS7003;59641;45.188;5.712;2024-03-29T11:58:25;4.20;3.00;1.00
71794;PMS7003;59641;45.188;5.712;2024-03-29T12:00:52;3.40;0.60;0.00
71794;PMS7003;59641;45.188;5.712;2024-03-29T12:03:18;4.20;1.60;0.00
71794;PMS7003;59641;45.188;5.712;2024-03-29T12:05:46;1.20;1.00;0.00
71794;PMS7003;59641;45.188;5.712;2024-03-29T12:08:12;5.00;4.40;0.20
71794;PMS7003;59641;45.188;5.712;2024-03-29T12:10:39;2.80;0.80;0.00
71794;PMS7003;59641;45.188;5.712;2024-03-29T12:13:05;3.40;0.80;0.00
71794;PMS7003;59641;45.188;5.712;2024-03-29T12:15:31;5.25;2.25;1.00
71794;PMS7003;59641;45.188;5.712;2024-03-29T12:18:05;7.75;4.75;0.75
71794;PMS7003;59641;45.188;5.712;2024-03-29T12:20:34;4.60;3.40;1.20
71794;PMS7003;59641;45.188;5.712;2024-03-29T12:23:02;5.80;2.00;0.40
71794;PMS7003;59641;45.188;5.712;2024-03-29T12:25:30;11.00;4.00;1.00
71794;PMS7003;59641;45.188;5.712;2024-03-29T12:27:57;4.40;3.00;0.60
71794;PMS7003;59641;45.188;5.712;2024-03-29T12:30:23;2.00;1.60;0.00
71794;PMS7003;59641;45.188;5.712;2024-03-29T12:35:36;6.40;2.00;0.80
71794;PMS7003;59641;45.188;5.712;2024-03-29T12:38:02;3.00;1.25;0.00
71794;PMS7003;59641;45.188;5.712;2024-03-29T12:40:29;7.40;3.60;1.00
71794;PMS7003;59641;45.188;5.712;2024-03-29T12:43:01;8.00;3.60;1.40
71794;PMS7003;59641;45.188;5.712;2024-03-29T12:45:28;7.80;4.40;1.40
71794;PMS7003;59641;45.188;5.712;2024-03-29T12:47:54;3.00;2.75;0.00
71794;PMS7003;59641;45.188;5.712;2024-03-29T12:50:39;3.25;3.00;1.00
71794;PMS7003;59641;45.188;5.712;2024-03-29T12:53:06;7.00;3.00;1.00
71794;PMS7003;59641;45.188;5.712;2024-03-29T12:55:32;4.80;2.40;1.00
71794;PMS7003;59641;45.188;5.712;2024-03-29T12:58:01;5.40;0.00;0.00
71794;PMS7003;59641;45.188;5.712;2024-03-29T13:00:33;10.40;4.80;2.00
71794;PMS7003;59641;45.188;5.712;2024-03-29T13:02:59;16.00;7.00;3.00
71794;PMS7003;59641;45.188;5.712;2024-03-29T13:05:24;12.00;5.00;1.00
71794;PMS7003;59641;45.188;5.712;2024-03-29T13:07:50;7.75;4.50;2.00
71794;PMS7003;59641;45.188;5.712;2024-03-29T13:10:16;9.00;5.00;2.00
71794;PMS7003;59641;45.188;5.712;2024-03-29T13:12:46;9.80;6.60;1.80
71794;PMS7003;59641;45.188;5.712;2024-03-29T13:15:24;9.60;5.00;2.00
71794;PMS7003;59641;45.188;5.712;2024-03-29T13:17:51;10.80;6.40;2.00
71794;PMS7003;59641;45.188;5.712;2024-03-29T13:20:21;5.80;2.60;0.00
71794;PMS7003;59641;45.188;5.712;2024-03-29T13:22:47;8.80;5.00;1.40
71794;PMS7003;59641;45.188;5.712;2024-03-29T13:25:18;12.20;6.80;3.00
71794;PMS7003;59641;45.188;5.712;2024-03-29T13:27:44;8.00;3.60;1.00
71794;PMS7003;59641;45.188;5.712;2024-03-29T13:30:20;6.20;5.40;1.00
71794;PMS7003;59641;45.188;5.712;2024-03-29T13:32:46;7.20;2.60;1.00
71794;PMS7003;59641;45.188;5.712;2024-03-29T13:35:12;14.50;7.25;2.25
71794;PMS7003;59641;45.188;5.712;2024-03-29T13:37:38;13.75;8.25;4.00
71794;PMS7003;59641;45.188;5.712;2024-03-29T13:40:06;13.00;5.40;2.00
71794;PMS7003;59641;45.188;5.712;2024-03-29T13:42:32;8.00;3.80;0.80
71794;PMS7003;59641;45.188;5.712;2024-03-29T13:44:58;14.00;9.75;3.75
71794;PMS7003;59641;45.188;5.712;2024-03-29T13:47:23;11.50;4.50;1.50
71794;PMS7003;59641;45.188;5.712;2024-03-29T13:49:48;10.75;6.75;1.00
71794;PMS7003;59641;45.188;5.712;2024-03-29T13:52:17;8.20;7.20;2.00
71794;PMS7003;59641;45.188;5.712;2024-03-29T13:54:43;8.50;3.25;0.00
71794;PMS7003;59641;45.188;5.712;2024-03-29T13:57:09;10.80;2.40;0.80
71794;PMS7003;59641;45.188;5.712;2024-03-29T13:59:34;9.00;5.50;0.75
71794;PMS7003;59641;45.188;5.712;2024-03-29T14:02:00;7.25;2.00;0.00
71794;PMS7003;59641;45.188;5.712;2024-03-29T14:04:25;8.50;4.00;1.00
71794;PMS7003;59641;45.188;5.712;2024-03-29T14:06:50;6.25;4.00;0.00
71794;PMS7003;59641;45.188;5.712;2024-03-29T14:09:16;11.00;7.00;1.00
71794;PMS7003;59641;45.188;5.712;2024-03-29T14:11:41;5.75;3.25;1.00
71794;PMS7003;59641;45.188;5.712;2024-03-29T14:14:09;10.40;3.60;1.20
71794;PMS7003;59641;45.188;5.712;2024-03-29T14:16:35;6.20;4.80;1.20
71794;PMS7003;59641;45.188;5.712;2024-03-29T14:19:02;7.00;4.20;1.20
71794;PMS7003;59641;45.188;5.712;2024-03-29T14:21:27;6.25;5.50;1.00
71794;PMS7003;59641;45.188;5.712;2024-03-29T14:23:53;7.00;3.00;1.00